sensor_id;sensor_type;location;lat;lon;timestamp;temperature;humidity
45491;DHT22;31237;45.586;13.782;2023-07-24T00:01:57;22.90;90.50
45491;DHT22;31237;45.586;13.782;2023-07-24T00:04:22;22.90;90.60
45491;DHT22;31237;45.586;13.782;2023-07-24T00:06:48;22.90;90.60
45491;DHT22;31237;45.586;13.782;2023-07-24T00:09:14;22.90;90.50
45491;DHT22;31237;45.586;13.782;2023-07-24T00:11:40;22.80;90.50
45491;DHT22;31237;45.586;13.782;2023-07-24T00:14:06;22.80;90.50
45491;DHT22;31237;45.586;13.782;2023-07-24T00:16:32;22.80;90.50
45491;DHT22;31237;45.586;13.782;2023-07-24T00:18:57;22.80;90.50
45491;DHT22;31237;45.586;13.782;2023-07-24T00:21:23;22.80;90.60
45491;DHT22;31237;45.586;13.782;2023-07-24T00:23:49;22.70;90.60
45491;DHT22;31237;45.586;13.782;2023-07-24T00:26:14;22.70;90.60
45491;DHT22;31237;45.586;13.782;2023-07-24T00:28:40;22.70;90.60
45491;DHT22;31237;45.586;13.782;2023-07-24T00:31:06;22.70;90.60
45491;DHT22;31237;45.586;13.782;2023-07-24T00:33:31;22.70;90.60
45491;DHT22;31237;45.586;13.782;2023-07-24T00:35:57;22.70;90.70
45491;DHT22;31237;45.586;13.782;2023-07-24T00:38:23;22.60;90.60
45491;DHT22;31237;45.586;13.782;2023-07-24T00:40:50;22.60;90.60
45491;DHT22;31237;45.586;13.782;2023-07-24T00:43:16;22.60;90.60
45491;DHT22;31237;45.586;13.782;2023-07-24T00:45:42;22.60;90.70
45491;DHT22;31237;45.586;13.782;2023-07-24T00:48:08;22.60;90.70
45491;DHT22;31237;45.586;13.782;2023-07-24T00:50:35;22.50;90.70
45491;DHT22;31237;45.586;13.782;2023-07-24T00:53:01;22.50;90.70
45491;DHT22;31237;45.586;13.782;2023-07-24T00:55:27;22.50;90.70
45491;DHT22;31237;45.586;13.782;2023-07-24T00:57:53;22.50;90.80
45491;DHT22;31237;45.586;13.782;2023-07-24T01:00:20;22.50;90.80
45491;DHT22;31237;45.586;13.782;2023-07-24T01:02:46;22.40;90.80
45491;DHT22;31237;45.586;13.782;2023-07-24T01:05:13;22.40;90.80
45491;DHT22;31237;45.586;13.782;2023-07-24T01:07:42;22.40;90.80
45491;DHT22;31237;45.586;13.782;2023-07-24T01:10:08;22.40;90.90
45491;DHT22;31237;45.586;13.782;2023-07-24T01:13:15;22.40;90.90
45491;DHT22;31237;45.586;13.782;2023-07-24T01:16:00;22.40;90.90
45491;DHT22;31237;45.586;13.782;2023-07-24T01:18:30;22.40;90.90
45491;DHT22;31237;45.586;13.782;2023-07-24T01:20:57;22.30;90.90
45491;DHT22;31237;45.586;13.782;2023-07-24T01:23:44;22.30;90.90
45491;DHT22;31237;45.586;13.782;2023-07-24T01:26:12;22.30;90.90
45491;DHT22;31237;45.586;13.782;2023-07-24T01:28:38;22.30;90.90
45491;DHT22;31237;45.586;13.782;2023-07-24T01:31:05;22.30;90.90
45491;DHT22;31237;45.586;13.782;2023-07-24T01:33:31;22.30;90.90
45491;DHT22;31237;45.586;13.782;2023-07-24T01:36:01;22.30;90.90
45491;DHT22;31237;45.586;13.782;2023-07-24T01:38:28;22.20;90.90
45491;DHT22;31237;45.586;13.782;2023-07-24T01:40:56;22.20;90.90
45491;DHT22;31237;45.586;13.782;2023-07-24T01:43:22;22.20;90.80
45491;DHT22;31237;45.586;13.782;2023-07-24T01:45:48;22.20;90.80
45491;DHT22;31237;45.586;13.782;2023-07-24T01:48:14;22.20;90.80
45491;DHT22;31237;45.586;13.782;2023-07-24T01:50:39;22.20;90.70
45491;DHT22;31237;45.586;13.782;2023-07-24T01:53:05;22.20;90.70
45491;DHT22;31237;45.586;13.782;2023-07-24T01:55:31;22.20;90.70
45491;DHT22;31237;45.586;13.782;2023-07-24T01:57:56;22.20;90.60
45491;DHT22;31237;45.586;13.782;2023-07-24T02:00:22;22.20;90.60
45491;DHT22;31237;45.586;13.782;2023-07-24T02:02:47;22.20;90.50
45491;DHT22;31237;45.586;13.782;2023-07-24T02:05:13;22.20;90.50
45491;DHT22;31237;45.586;13.782;2023-07-24T02:07:39;22.20;90.40
45491;DHT22;31237;45.586;13.782;2023-07-24T02:10:05;22.20;90.40
45491;DHT22;31237;45.586;13.782;2023-07-24T02:12:31;22.20;90.30
45491;DHT22;31237;45.586;13.782;2023-07-24T02:14:56;22.20;90.30
45491;DHT22;31237;45.586;13.782;2023-07-24T02:17:23;22.20;90.20
45491;DHT22;31237;45.586;13.782;2023-07-24T02:19:49;22.20;90.20
45491;DHT22;31237;45.586;13.782;2023-07-24T02:22:15;22.20;90.20
45491;DHT22;31237;45.586;13.782;2023-07-24T02:24:41;22.20;90.20
45491;DHT22;31237;45.586;13.782;2023-07-24T02:27:07;22.20;90.20
45491;DHT22;31237;45.586;13.782;2023-07-24T02:29:33;22.10;90.20
45491;DHT22;31237;45.586;13.782;2023-07-24T02:31:59;22.10;90.20
45491;DHT22;31237;45.586;13.782;2023-07-24T02:34:25;22.10;90.20
45491;DHT22;31237;45.586;13.782;2023-07-24T02:36:53;22.10;90.20
45491;DHT22;31237;45.586;13.782;2023-07-24T02:39:19;22.10;90.20
45491;DHT22;31237;45.586;13.782;2023-07-24T02:41:45;22.10;90.20
45491;DHT22;31237;45.586;13.782;2023-07-24T02:44:12;22.10;90.20
45491;DHT22;31237;45.586;13.782;2023-07-24T02:46:38;22.10;90.10
45491;DHT22;31237;45.586;13.782;2023-07-24T02:49:04;22.10;90.00
45491;DHT22;31237;45.586;13.782;2023-07-24T02:51:30;22.20;89.90
45491;DHT22;31237;45.586;13.782;2023-07-24T02:53:56;22.20;89.50
45491;DHT22;31237;45.586;13.782;2023-07-24T02:56:22;22.30;89.20
45491;DHT22;31237;45.586;13.782;2023-07-24T02:58:47;22.30;88.90
45491;DHT22;31237;45.586;13.782;2023-07-24T03:01:13;22.30;88.70
45491;DHT22;31237;45.586;13.782;2023-07-24T03:03:42;22.30;88.50
45491;DHT22;31237;45.586;13.782;2023-07-24T03:06:08;22.30;88.30
45491;DHT22;31237;45.586;13.782;2023-07-24T03:08:34;22.30;88.30
45491;DHT22;31237;45.586;13.782;2023-07-24T03:11:00;22.30;88.30
45491;DHT22;31237;45.586;13.782;2023-07-24T03:13:27;22.30;88.20
45491;DHT22;31237;45.586;13.782;2023-07-24T03:15:54;22.30;88.30
45491;DHT22;31237;45.586;13.782;2023-07-24T03:18:21;22.20;88.20
45491;DHT22;31237;45.586;13.782;2023-07-24T03:20:46;22.20;88.30
45491;DHT22;31237;45.586;13.782;2023-07-24T03:23:12;22.20;88.30
45491;DHT22;31237;45.586;13.782;2023-07-24T03:25:38;22.20;88.20
45491;DHT22;31237;45.586;13.782;2023-07-24T03:28:04;22.20;88.20
45491;DHT22;31237;45.586;13.782;2023-07-24T03:30:30;22.20;88.00
45491;DHT22;31237;45.586;13.782;2023-07-24T03:32:56;22.20;88.00
45491;DHT22;31237;45.586;13.782;2023-07-24T03:35:22;22.20;87.90
45491;DHT22;31237;45.586;13.782;2023-07-24T03:37:47;22.20;88.00
45491;DHT22;31237;45.586;13.782;2023-07-24T03:40:13;22.20;88.00
45491;DHT22;31237;45.586;13.782;2023-07-24T03:42:39;22.20;88.10
45491;DHT22;31237;45.586;13.782;2023-07-24T03:45:06;22.20;88.10
45491;DHT22;31237;45.586;13.782;2023-07-24T03:47:31;22.20;88.20
45491;DHT22;31237;45.586;13.782;2023-07-24T03:49:57;22.10;88.20
45491;DHT22;31237;45.586;13.782;2023-07-24T03:52:23;22.10;88.30
45491;DHT22;31237;45.586;13.782;2023-07-24T03:54:48;22.10;88.50
45491;DHT22;31237;45.586;13.782;2023-07-24T03:57:14;22.10;88.60
45491;DHT22;31237;45.586;13.782;2023-07-24T03:59:40;22.00;88.60
45491;DHT22;31237;45.586;13.782;2023-07-24T04:02:06;22.00;88.70
45491;DHT22;31237;45.586;13.782;2023-07-24T04:04:32;22.00;88.70
45491;DHT22;31237;45.586;13.782;2023-07-24T04:06:58;22.00;88.80
45491;DHT22;31237;45.586;13.782;2023-07-24T04:09:24;22.00;89.00
45491;DHT22;31237;45.586;13.782;2023-07-24T04:11:49;22.00;89.00
45491;DHT22;31237;45.586;13.782;2023-07-24T04:14:15;22.00;89.10
45491;DHT22;31237;45.586;13.782;2023-07-24T04:16:41;22.00;89.20
45491;DHT22;31237;45.586;13.782;2023-07-24T04:19:07;22.00;89.30
45491;DHT22;31237;45.586;13.782;2023-07-24T04:21:32;22.00;89.40
45491;DHT22;31237;45.586;13.782;2023-07-24T04:23:58;22.00;89.50
45491;DHT22;31237;45.586;13.782;2023-07-24T04:26:24;22.10;89.60
45491;DHT22;31237;45.586;13.782;2023-07-24T04:28:49;22.10;89.60
45491;DHT22;31237;45.586;13.782;2023-07-24T04:31:15;22.10;89.60
45491;DHT22;31237;45.586;13.782;2023-07-24T04:33:41;22.20;89.60
45491;DHT22;31237;45.586;13.782;2023-07-24T04:36:06;22.20;89.70
45491;DHT22;31237;45.586;13.782;2023-07-24T04:38:32;22.30;89.70
45491;DHT22;31237;45.586;13.782;2023-07-24T04:41:00;22.30;89.70
45491;DHT22;31237;45.586;13.782;2023-07-24T04:43:27;22.40;89.70
45491;DHT22;31237;45.586;13.782;2023-07-24T04:45:52;22.40;89.70
45491;DHT22;31237;45.586;13.782;2023-07-24T04:48:18;22.50;89.70
45491;DHT22;31237;45.586;13.782;2023-07-24T04:50:44;22.60;89.60
45491;DHT22;31237;45.586;13.782;2023-07-24T04:53:09;22.60;89.60
45491;DHT22;31237;45.586;13.782;2023-07-24T04:55:35;22.70;89.60
45491;DHT22;31237;45.586;13.782;2023-07-24T04:58:01;22.80;89.70
45491;DHT22;31237;45.586;13.782;2023-07-24T05:00:26;22.80;89.80
45491;DHT22;31237;45.586;13.782;2023-07-24T05:02:52;22.90;89.90
45491;DHT22;31237;45.586;13.782;2023-07-24T05:05:18;23.00;89.80
45491;DHT22;31237;45.586;13.782;2023-07-24T05:07:44;23.10;89.70
45491;DHT22;31237;45.586;13.782;2023-07-24T05:10:09;23.20;89.40
45491;DHT22;31237;45.586;13.782;2023-07-24T05:12:35;23.30;89.00
45491;DHT22;31237;45.586;13.782;2023-07-24T05:15:01;23.30;88.80
45491;DHT22;31237;45.586;13.782;2023-07-24T05:17:26;23.40;88.40
45491;DHT22;31237;45.586;13.782;2023-07-24T05:19:52;23.50;88.20
45491;DHT22;31237;45.586;13.782;2023-07-24T05:22:18;23.60;87.90
45491;DHT22;31237;45.586;13.782;2023-07-24T05:24:43;23.70;87.60
45491;DHT22;31237;45.586;13.782;2023-07-24T05:27:09;23.80;87.40
45491;DHT22;31237;45.586;13.782;2023-07-24T05:29:35;23.90;87.20
45491;DHT22;31237;45.586;13.782;2023-07-24T05:32:00;24.00;86.80
45491;DHT22;31237;45.586;13.782;2023-07-24T05:34:26;24.10;86.50
45491;DHT22;31237;45.586;13.782;2023-07-24T05:36:52;24.20;86.30
45491;DHT22;31237;45.586;13.782;2023-07-24T05:39:17;24.30;86.50
45491;DHT22;31237;45.586;13.782;2023-07-24T05:41:43;24.30;85.50
45491;DHT22;31237;45.586;13.782;2023-07-24T05:44:09;24.50;85.20
45491;DHT22;31237;45.586;13.782;2023-07-24T05:46:34;24.50;84.70
45491;DHT22;31237;45.586;13.782;2023-07-24T05:49:00;24.60;84.40
45491;DHT22;31237;45.586;13.782;2023-07-24T05:51:27;24.60;84.00
45491;DHT22;31237;45.586;13.782;2023-07-24T05:53:53;24.70;83.70
45491;DHT22;31237;45.586;13.782;2023-07-24T05:56:19;24.80;83.40
45491;DHT22;31237;45.586;13.782;2023-07-24T05:58:44;24.90;83.00
45491;DHT22;31237;45.586;13.782;2023-07-24T06:01:10;25.00;82.70
45491;DHT22;31237;45.586;13.782;2023-07-24T06:03:36;25.10;82.50
45491;DHT22;31237;45.586;13.782;2023-07-24T06:06:02;25.20;82.20
45491;DHT22;31237;45.586;13.782;2023-07-24T06:08:28;25.30;82.00
45491;DHT22;31237;45.586;13.782;2023-07-24T06:10:54;25.30;81.80
45491;DHT22;31237;45.586;13.782;2023-07-24T06:13:19;25.40;81.60
45491;DHT22;31237;45.586;13.782;2023-07-24T06:15:47;25.50;81.40
45491;DHT22;31237;45.586;13.782;2023-07-24T06:18:14;25.70;80.70
45491;DHT22;31237;45.586;13.782;2023-07-24T06:20:40;25.80;80.40
45491;DHT22;31237;45.586;13.782;2023-07-24T06:23:06;25.90;80.00
45491;DHT22;31237;45.586;13.782;2023-07-24T06:25:32;26.00;79.70
45491;DHT22;31237;45.586;13.782;2023-07-24T06:27:58;26.10;79.40
45491;DHT22;31237;45.586;13.782;2023-07-24T06:30:23;26.20;79.20
45491;DHT22;31237;45.586;13.782;2023-07-24T06:32:49;26.30;79.20
45491;DHT22;31237;45.586;13.782;2023-07-24T06:35:15;26.40;79.00
45491;DHT22;31237;45.586;13.782;2023-07-24T06:37:41;26.50;78.70
45491;DHT22;31237;45.586;13.782;2023-07-24T06:40:07;26.60;78.70
45491;DHT22;31237;45.586;13.782;2023-07-24T06:42:33;26.60;78.60
45491;DHT22;31237;45.586;13.782;2023-07-24T06:44:59;26.70;78.50
45491;DHT22;31237;45.586;13.782;2023-07-24T06:47:25;26.70;78.50
45491;DHT22;31237;45.586;13.782;2023-07-24T06:49:51;26.80;78.40
45491;DHT22;31237;45.586;13.782;2023-07-24T06:52:16;26.90;78.40
45491;DHT22;31237;45.586;13.782;2023-07-24T06:54:42;26.90;78.30
45491;DHT22;31237;45.586;13.782;2023-07-24T06:57:08;27.00;78.10
45491;DHT22;31237;45.586;13.782;2023-07-24T06:59:33;27.10;77.80
45491;DHT22;31237;45.586;13.782;2023-07-24T07:01:59;27.20;77.60
45491;DHT22;31237;45.586;13.782;2023-07-24T07:04:25;27.30;77.30
45491;DHT22;31237;45.586;13.782;2023-07-24T07:06:50;27.40;77.00
45491;DHT22;31237;45.586;13.782;2023-07-24T07:09:16;27.50;76.70
45491;DHT22;31237;45.586;13.782;2023-07-24T07:11:42;27.60;76.70
45491;DHT22;31237;45.586;13.782;2023-07-24T07:14:09;27.70;76.60
45491;DHT22;31237;45.586;13.782;2023-07-24T07:16:35;27.80;76.50
45491;DHT22;31237;45.586;13.782;2023-07-24T07:19:00;28.00;76.70
45491;DHT22;31237;45.586;13.782;2023-07-24T07:21:26;28.10;76.70
45491;DHT22;31237;45.586;13.782;2023-07-24T07:23:52;28.30;76.50
45491;DHT22;31237;45.586;13.782;2023-07-24T07:26:17;28.50;76.40
45491;DHT22;31237;45.586;13.782;2023-07-24T07:28:43;28.70;76.30
45491;DHT22;31237;45.586;13.782;2023-07-24T07:31:10;28.80;76.00
45491;DHT22;31237;45.586;13.782;2023-07-24T07:33:36;28.90;75.90
45491;DHT22;31237;45.586;13.782;2023-07-24T07:36:02;29.00;75.90
45491;DHT22;31237;45.586;13.782;2023-07-24T07:38:29;29.00;76.00
45491;DHT22;31237;45.586;13.782;2023-07-24T07:40:55;29.10;76.30
45491;DHT22;31237;45.586;13.782;2023-07-24T07:43:21;29.20;76.40
45491;DHT22;31237;45.586;13.782;2023-07-24T07:45:52;29.30;76.20
45491;DHT22;31237;45.586;13.782;2023-07-24T07:48:18;29.40;76.00
45491;DHT22;31237;45.586;13.782;2023-07-24T07:50:44;29.50;76.10
45491;DHT22;31237;45.586;13.782;2023-07-24T07:53:09;29.50;76.20
45491;DHT22;31237;45.586;13.782;2023-07-24T07:55:35;29.50;76.20
45491;DHT22;31237;45.586;13.782;2023-07-24T07:58:01;29.50;76.40
45491;DHT22;31237;45.586;13.782;2023-07-24T08:00:26;29.50;76.60
45491;DHT22;31237;45.586;13.782;2023-07-24T08:02:52;29.40;76.70
45491;DHT22;31237;45.586;13.782;2023-07-24T08:05:18;29.30;76.80
45491;DHT22;31237;45.586;13.782;2023-07-24T08:07:43;29.30;77.20
45491;DHT22;31237;45.586;13.782;2023-07-24T08:10:09;29.30;77.30
45491;DHT22;31237;45.586;13.782;2023-07-24T08:12:35;29.30;77.60
45491;DHT22;31237;45.586;13.782;2023-07-24T08:15:01;29.30;77.70
45491;DHT22;31237;45.586;13.782;2023-07-24T08:17:26;29.30;77.00
45491;DHT22;31237;45.586;13.782;2023-07-24T08:19:52;29.50;76.80
45491;DHT22;31237;45.586;13.782;2023-07-24T08:22:18;29.50;76.80
45491;DHT22;31237;45.586;13.782;2023-07-24T08:24:45;29.70;76.60
45491;DHT22;31237;45.586;13.782;2023-07-24T08:27:11;29.80;76.40
45491;DHT22;31237;45.586;13.782;2023-07-24T08:29:36;30.00;76.50
45491;DHT22;31237;45.586;13.782;2023-07-24T08:32:04;30.00;76.00
45491;DHT22;31237;45.586;13.782;2023-07-24T08:34:30;30.10;75.70
45491;DHT22;31237;45.586;13.782;2023-07-24T08:36:55;30.20;75.70
45491;DHT22;31237;45.586;13.782;2023-07-24T08:39:21;30.30;75.50
45491;DHT22;31237;45.586;13.782;2023-07-24T08:41:47;30.40;75.00
45491;DHT22;31237;45.586;13.782;2023-07-24T08:44:13;30.50;74.80
45491;DHT22;31237;45.586;13.782;2023-07-24T08:46:39;30.60;74.40
45491;DHT22;31237;45.586;13.782;2023-07-24T08:49:11;30.70;74.40
45491;DHT22;31237;45.586;13.782;2023-07-24T08:51:37;30.80;74.20
45491;DHT22;31237;45.586;13.782;2023-07-24T08:54:04;30.90;74.30
45491;DHT22;31237;45.586;13.782;2023-07-24T08:56:30;31.00;74.20
45491;DHT22;31237;45.586;13.782;2023-07-24T08:58:57;31.10;73.90
45491;DHT22;31237;45.586;13.782;2023-07-24T09:01:22;31.20;73.20
45491;DHT22;31237;45.586;13.782;2023-07-24T09:03:48;31.20;72.60
45491;DHT22;31237;45.586;13.782;2023-07-24T09:06:14;31.20;72.80
45491;DHT22;31237;45.586;13.782;2023-07-24T09:08:41;31.30;72.80
45491;DHT22;31237;45.586;13.782;2023-07-24T09:11:08;31.40;72.50
45491;DHT22;31237;45.586;13.782;2023-07-24T09:13:40;31.50;72.40
45491;DHT22;31237;45.586;13.782;2023-07-24T09:16:07;31.60;72.10
45491;DHT22;31237;45.586;13.782;2023-07-24T09:18:42;31.80;72.10
45491;DHT22;31237;45.586;13.782;2023-07-24T09:21:09;31.90;72.00
45491;DHT22;31237;45.586;13.782;2023-07-24T09:23:37;32.00;72.00
45491;DHT22;31237;45.586;13.782;2023-07-24T09:26:06;32.00;71.80
45491;DHT22;31237;45.586;13.782;2023-07-24T09:28:33;32.10;71.60
45491;DHT22;31237;45.586;13.782;2023-07-24T09:31:00;32.20;70.60
45491;DHT22;31237;45.586;13.782;2023-07-24T09:33:40;32.30;70.50
45491;DHT22;31237;45.586;13.782;2023-07-24T09:36:08;32.40;70.30
45491;DHT22;31237;45.586;13.782;2023-07-24T09:38:38;32.50;69.80
45491;DHT22;31237;45.586;13.782;2023-07-24T09:41:04;32.60;69.80
45491;DHT22;31237;45.586;13.782;2023-07-24T09:43:31;32.60;69.70
45491;DHT22;31237;45.586;13.782;2023-07-24T09:45:57;32.70;69.80
45491;DHT22;31237;45.586;13.782;2023-07-24T09:48:27;32.80;69.70
45491;DHT22;31237;45.586;13.782;2023-07-24T09:50:55;33.00;69.70
45491;DHT22;31237;45.586;13.782;2023-07-24T09:53:34;33.10;69.40
45491;DHT22;31237;45.586;13.782;2023-07-24T09:58:29;33.30;69.10
45491;DHT22;31237;45.586;13.782;2023-07-24T10:00:55;33.30;68.90
45491;DHT22;31237;45.586;13.782;2023-07-24T10:03:22;33.20;68.80
45491;DHT22;31237;45.586;13.782;2023-07-24T10:05:48;33.00;69.00
45491;DHT22;31237;45.586;13.782;2023-07-24T10:08:16;32.80;69.20
45491;DHT22;31237;45.586;13.782;2023-07-24T10:10:42;32.70;69.60
45491;DHT22;31237;45.586;13.782;2023-07-24T10:13:09;32.60;70.20
45491;DHT22;31237;45.586;13.782;2023-07-24T10:15:39;32.50;70.40
45491;DHT22;31237;45.586;13.782;2023-07-24T10:18:07;32.40;70.70
45491;DHT22;31237;45.586;13.782;2023-07-24T10:20:40;32.30;71.00
45491;DHT22;31237;45.586;13.782;2023-07-24T10:23:07;32.10;71.50
45491;DHT22;31237;45.586;13.782;2023-07-24T10:25:35;32.00;71.90
45491;DHT22;31237;45.586;13.782;2023-07-24T10:28:03;31.80;72.40
45491;DHT22;31237;45.586;13.782;2023-07-24T10:30:39;31.60;73.10
45491;DHT22;31237;45.586;13.782;2023-07-24T10:33:13;31.60;73.50
45491;DHT22;31237;45.586;13.782;2023-07-24T10:35:44;31.60;73.90
45491;DHT22;31237;45.586;13.782;2023-07-24T10:38:13;31.60;74.20
45491;DHT22;31237;45.586;13.782;2023-07-24T10:40:41;31.70;74.60
45491;DHT22;31237;45.586;13.782;2023-07-24T10:43:12;31.80;74.50
45491;DHT22;31237;45.586;13.782;2023-07-24T10:45:58;31.90;74.30
45491;DHT22;31237;45.586;13.782;2023-07-24T10:48:25;31.80;73.50
45491;DHT22;31237;45.586;13.782;2023-07-24T10:50:52;31.80;73.50
45491;DHT22;31237;45.586;13.782;2023-07-24T10:53:19;31.60;73.10
45491;DHT22;31237;45.586;13.782;2023-07-24T10:55:47;31.40;72.80
45491;DHT22;31237;45.586;13.782;2023-07-24T10:58:13;31.00;73.50
45491;DHT22;31237;45.586;13.782;2023-07-24T11:00:43;30.80;74.10
45491;DHT22;31237;45.586;13.782;2023-07-24T11:03:13;30.50;74.70
45491;DHT22;31237;45.586;13.782;2023-07-24T11:05:43;30.40;75.30
45491;DHT22;31237;45.586;13.782;2023-07-24T11:08:14;30.30;75.60
45491;DHT22;31237;45.586;13.782;2023-07-24T11:10:57;30.20;75.90
45491;DHT22;31237;45.586;13.782;2023-07-24T11:13:28;30.10;75.70
45491;DHT22;31237;45.586;13.782;2023-07-24T11:15:54;30.00;76.00
45491;DHT22;31237;45.586;13.782;2023-07-24T11:18:21;29.90;76.50
45491;DHT22;31237;45.586;13.782;2023-07-24T11:20:54;29.60;77.50
45491;DHT22;31237;45.586;13.782;2023-07-24T11:23:21;29.30;78.90
45491;DHT22;31237;45.586;13.782;2023-07-24T11:25:49;29.00;80.30
45491;DHT22;31237;45.586;13.782;2023-07-24T11:28:16;28.90;81.50
45491;DHT22;31237;45.586;13.782;2023-07-24T11:30:45;28.90;82.10
45491;DHT22;31237;45.586;13.782;2023-07-24T11:33:15;28.90;82.70
45491;DHT22;31237;45.586;13.782;2023-07-24T11:35:42;29.00;82.10
45491;DHT22;31237;45.586;13.782;2023-07-24T11:38:09;29.10;81.30
45491;DHT22;31237;45.586;13.782;2023-07-24T11:40:41;29.20;80.30
45491;DHT22;31237;45.586;13.782;2023-07-24T11:43:18;29.20;80.30
45491;DHT22;31237;45.586;13.782;2023-07-24T11:45:46;29.10;80.00
45491;DHT22;31237;45.586;13.782;2023-07-24T11:48:27;29.00;80.40
45491;DHT22;31237;45.586;13.782;2023-07-24T11:50:55;28.90;80.70
45491;DHT22;31237;45.586;13.782;2023-07-24T11:53:31;28.80;81.00
45491;DHT22;31237;45.586;13.782;2023-07-24T11:56:00;28.70;81.40
45491;DHT22;31237;45.586;13.782;2023-07-24T11:58:29;28.70;81.60
45491;DHT22;31237;45.586;13.782;2023-07-24T12:00:57;28.70;81.80
45491;DHT22;31237;45.586;13.782;2023-07-24T12:03:28;28.70;82.10
45491;DHT22;31237;45.586;13.782;2023-07-24T12:05:55;28.70;82.50
45491;DHT22;31237;45.586;13.782;2023-07-24T12:08:33;28.70;82.70
45491;DHT22;31237;45.586;13.782;2023-07-24T12:11:00;28.80;82.90
45491;DHT22;31237;45.586;13.782;2023-07-24T12:13:26;28.80;83.10
45491;DHT22;31237;45.586;13.782;2023-07-24T12:15:53;28.70;83.30
45491;DHT22;31237;45.586;13.782;2023-07-24T12:18:21;28.70;83.50
45491;DHT22;31237;45.586;13.782;2023-07-24T12:20:47;28.70;83.60
45491;DHT22;31237;45.586;13.782;2023-07-24T12:23:16;28.90;83.70
45491;DHT22;31237;45.586;13.782;2023-07-24T12:25:42;29.10;83.40
45491;DHT22;31237;45.586;13.782;2023-07-24T12:28:08;29.30;82.50
45491;DHT22;31237;45.586;13.782;2023-07-24T12:30:34;29.50;81.50
45491;DHT22;31237;45.586;13.782;2023-07-24T12:33:09;29.60;80.80
45491;DHT22;31237;45.586;13.782;2023-07-24T12:35:38;29.80;80.70
45491;DHT22;31237;45.586;13.782;2023-07-24T12:38:07;29.90;80.30
45491;DHT22;31237;45.586;13.782;2023-07-24T12:40:33;30.00;80.40
45491;DHT22;31237;45.586;13.782;2023-07-24T12:43:00;30.10;79.40
45491;DHT22;31237;45.586;13.782;2023-07-24T12:45:27;30.10;78.50
45491;DHT22;31237;45.586;13.782;2023-07-24T12:47:53;30.10;78.00
45491;DHT22;31237;45.586;13.782;2023-07-24T12:50:21;30.20;78.10
45491;DHT22;31237;45.586;13.782;2023-07-24T12:52:49;30.30;78.30
45491;DHT22;31237;45.586;13.782;2023-07-24T12:55:17;30.40;78.50
45491;DHT22;31237;45.586;13.782;2023-07-24T12:57:43;30.60;78.60
45491;DHT22;31237;45.586;13.782;2023-07-24T13:00:10;30.70;78.40
45491;DHT22;31237;45.586;13.782;2023-07-24T13:02:36;30.80;78.30
45491;DHT22;31237;45.586;13.782;2023-07-24T13:05:01;30.90;78.00
45491;DHT22;31237;45.586;13.782;2023-07-24T13:07:27;31.00;77.80
45491;DHT22;31237;45.586;13.782;2023-07-24T13:09:54;31.00;77.70
45491;DHT22;31237;45.586;13.782;2023-07-24T13:12:20;31.00;77.70
45491;DHT22;31237;45.586;13.782;2023-07-24T13:14:46;31.10;77.90
45491;DHT22;31237;45.586;13.782;2023-07-24T13:17:12;31.10;78.00
45491;DHT22;31237;45.586;13.782;2023-07-24T13:19:38;31.10;78.20
45491;DHT22;31237;45.586;13.782;2023-07-24T13:22:04;31.10;78.20
45491;DHT22;31237;45.586;13.782;2023-07-24T13:24:29;31.10;77.80
45491;DHT22;31237;45.586;13.782;2023-07-24T13:26:55;31.10;77.50
45491;DHT22;31237;45.586;13.782;2023-07-24T13:29:21;31.10;77.50
45491;DHT22;31237;45.586;13.782;2023-07-24T13:31:46;30.90;76.90
45491;DHT22;31237;45.586;13.782;2023-07-24T13:34:12;30.80;77.40
45491;DHT22;31237;45.586;13.782;2023-07-24T13:36:38;30.70;77.80
45491;DHT22;31237;45.586;13.782;2023-07-24T13:39:04;30.60;77.80
45491;DHT22;31237;45.586;13.782;2023-07-24T13:41:29;30.60;77.70
45491;DHT22;31237;45.586;13.782;2023-07-24T13:43:55;30.50;78.10
45491;DHT22;31237;45.586;13.782;2023-07-24T13:46:21;30.50;78.80
45491;DHT22;31237;45.586;13.782;2023-07-24T13:48:46;30.50;78.20
45491;DHT22;31237;45.586;13.782;2023-07-24T13:51:12;30.50;78.40
45491;DHT22;31237;45.586;13.782;2023-07-24T13:53:38;30.50;78.30
45491;DHT22;31237;45.586;13.782;2023-07-24T13:56:04;30.60;78.60
45491;DHT22;31237;45.586;13.782;2023-07-24T13:58:29;30.60;78.40
45491;DHT22;31237;45.586;13.782;2023-07-24T14:00:55;30.60;78.20
45491;DHT22;31237;45.586;13.782;2023-07-24T14:03:21;30.70;78.30
45491;DHT22;31237;45.586;13.782;2023-07-24T14:05:49;30.80;78.40
45491;DHT22;31237;45.586;13.782;2023-07-24T14:08:15;30.80;78.40
45491;DHT22;31237;45.586;13.782;2023-07-24T14:10:41;30.90;78.10
45491;DHT22;31237;45.586;13.782;2023-07-24T14:13:06;30.90;78.10
45491;DHT22;31237;45.586;13.782;2023-07-24T14:15:32;30.90;78.20
45491;DHT22;31237;45.586;13.782;2023-07-24T14:17:58;30.90;78.70
45491;DHT22;31237;45.586;13.782;2023-07-24T14:20:23;30.90;78.80
45491;DHT22;31237;45.586;13.782;2023-07-24T14:22:49;30.90;79.10
45491;DHT22;31237;45.586;13.782;2023-07-24T14:25:15;30.90;79.20
45491;DHT22;31237;45.586;13.782;2023-07-24T14:27:40;31.00;79.40
45491;DHT22;31237;45.586;13.782;2023-07-24T14:30:09;31.10;79.40
45491;DHT22;31237;45.586;13.782;2023-07-24T14:32:36;31.10;79.50
45491;DHT22;31237;45.586;13.782;2023-07-24T14:35:01;31.20;79.50
45491;DHT22;31237;45.586;13.782;2023-07-24T14:37:27;31.30;79.50
45491;DHT22;31237;45.586;13.782;2023-07-24T14:39:53;31.30;79.30
45491;DHT22;31237;45.586;13.782;2023-07-24T14:42:19;31.30;79.20
45491;DHT22;31237;45.586;13.782;2023-07-24T14:44:44;31.30;79.20
45491;DHT22;31237;45.586;13.782;2023-07-24T14:47:10;31.30;79.10
45491;DHT22;31237;45.586;13.782;2023-07-24T14:49:36;31.30;78.80
45491;DHT22;31237;45.586;13.782;2023-07-24T14:52:02;31.30;78.80
45491;DHT22;31237;45.586;13.782;2023-07-24T14:54:28;31.30;78.60
45491;DHT22;31237;45.586;13.782;2023-07-24T14:56:54;31.30;78.60
45491;DHT22;31237;45.586;13.782;2023-07-24T14:59:21;31.20;78.80
45491;DHT22;31237;45.586;13.782;2023-07-24T15:01:47;31.10;78.80
45491;DHT22;31237;45.586;13.782;2023-07-24T15:04:13;30.90;79.00
45491;DHT22;31237;45.586;13.782;2023-07-24T15:06:38;30.90;79.30
45491;DHT22;31237;45.586;13.782;2023-07-24T15:09:04;30.80;79.50
45491;DHT22;31237;45.586;13.782;2023-07-24T15:11:30;30.80;79.80
45491;DHT22;31237;45.586;13.782;2023-07-24T15:13:55;30.80;79.70
45491;DHT22;31237;45.586;13.782;2023-07-24T15:16:21;30.80;79.70